.
WxDataArchive / Data Records for 2007-12-06
2007-12-05 December 2007 2007-12-07

Data Records for Thursday, 06 December 2007

Time	Temp	Chill	HIndex	Humid	Dewpt	 Wind 	HiWind	WindDir	Rain 	Barom 
-----	----	-----	------	-----	-----	------	------	-------	-----	----- 
00:00	10.2	10.2	10.2	85	6.6	0	0	---	0.00	30.195 
00:05	10.2	10.2	10.2	85	6.6	0	0	---	0.00	30.196 
00:10	10.2	10.2	10.2	85	6.6	0	0	---	0.00	30.196 
00:15	10.2	10.2	10.2	85	6.6	0	0	---	0.00	30.193 
00:20	10.2	10.2	10.2	85	6.6	0	0	---	0.00	30.197 
00:25	10.2	10.2	10.2	85	6.6	0	0	---	0.00	30.199 
00:30	10.2	10.2	10.2	85	6.6	0	0	---	0.00	30.199 
00:35	10.2	10.2	10.2	85	6.6	0	0	---	0.00	30.200 
00:40	10.4	10.4	10.4	85	6.8	0	0	---	0.00	30.201 
00:45	10.7	10.7	10.7	86	7.4	0	0	---	0.00	30.201 
00:50	11.2	11.2	11.2	87	8.1	0	0	---	0.00	30.201 
00:55	11.7	11.7	11.7	87	8.6	0	0	---	0.00	30.201 
01:00	12.3	12.3	12.3	87	9.2	0	0	---	0.00	30.203 
01:05	12.8	12.8	12.8	87	9.7	0	0	---	0.00	30.205 
01:10	13.1	13.1	13.1	87	10.0	0	0	---	0.00	30.202 
01:15	13.5	13.5	13.5	87	10.4	0	0	---	0.00	30.202 
01:20	13.8	13.8	13.8	87	10.7	0	0	---	0.00	30.204 
01:25	14.0	14.0	14.0	86	10.6	0	0	---	0.00	30.202 
01:30	14.1	14.1	14.1	86	10.7	0	0	---	0.00	30.202 
01:35	14.1	14.1	14.1	86	10.7	0	0	---	0.00	30.204 
01:40	14.1	14.1	14.1	85	10.4	0	0	---	0.00	30.205 
01:45	14.3	14.3	14.3	85	10.6	0	0	---	0.00	30.207 
01:50	14.3	14.3	14.3	85	10.6	0	0	---	0.00	30.208 
01:55	14.1	14.1	14.1	84	10.2	0	0	---	0.00	30.209 
02:00	14.0	14.0	14.0	84	10.1	0	0	---	0.00	30.208 
02:05	14.0	14.0	14.0	84	10.1	0	0	---	0.00	30.207 
02:10	13.8	13.8	13.8	84	9.9	0	0	---	0.00	30.209 
02:15	13.6	13.6	13.6	84	9.7	0	0	---	0.00	30.208 
02:20	13.5	13.5	13.5	84	9.6	0	0	---	0.00	30.210 
02:25	13.3	13.3	13.3	84	9.4	0	0	---	0.00	30.209 
02:30	13.3	13.3	13.3	84	9.4	0	0	---	0.00	30.207 
02:35	12.9	12.9	12.9	84	9.0	0	0	---	0.00	30.208 
02:40	12.8	12.8	12.8	84	8.9	0	0	---	0.00	30.210 
02:45	12.4	12.4	12.4	83	8.2	0	0	---	0.00	30.202 
02:50	12.1	12.1	12.1	84	8.2	0	0	---	0.00	30.204 
02:55	11.9	11.9	11.9	84	8.0	0	0	---	0.00	30.209 
03:00	11.6	11.6	11.6	84	7.7	0	0	---	0.00	30.209 
03:05	11.2	11.2	11.2	84	7.3	0	0	---	0.00	30.209 
03:10	10.9	10.9	10.9	84	7.0	0	0	---	0.00	30.206 
03:15	10.5	10.5	10.5	83	6.4	0	0	---	0.00	30.204 
03:20	10.0	10.0	10.0	83	5.9	0	0	---	0.00	30.209 
03:25	9.9	9.9	9.9	84	6.1	0	0	---	0.00	30.205 
03:30	9.5	9.5	9.5	83	5.4	0	0	---	0.00	30.202 
03:35	9.3	9.3	9.3	84	5.5	0	0	---	0.00	30.203 
03:40	9.2	9.2	9.2	84	5.4	0	0	---	0.00	30.201 
03:45	9.0	9.0	9.0	84	5.2	0	0	---	0.00	30.200 
03:50	9.0	9.0	9.0	84	5.2	0	0	---	0.00	30.199 
03:55	8.8	8.8	8.8	84	5.0	0	0	---	0.00	30.200 
04:00	8.6	8.6	8.6	84	4.8	0	0	---	0.00	30.199 
04:05	8.4	8.4	8.4	84	4.6	0	0	---	0.00	30.201 
04:10	8.3	8.3	8.3	84	4.5	0	0	---	0.00	30.203 
04:15	8.1	8.1	8.1	84	4.3	0	0	---	0.00	30.204 
04:20	7.9	7.9	7.9	84	4.1	0	0	---	0.00	30.203 
04:25	7.9	7.9	7.9	84	4.1	0	0	---	0.00	30.203 
04:30	7.7	7.7	7.7	84	3.9	0	0	---	0.00	30.206 
04:35	7.7	7.7	7.7	84	3.9	0	0	---	0.00	30.206 
04:40	7.6	7.6	7.6	84	3.8	0	0	---	0.00	30.206 
04:45	7.2	7.2	7.2	84	3.4	0	0	---	0.00	30.208 
04:50	7.0	7.0	7.0	84	3.2	0	0	---	0.00	30.208 
04:55	6.9	6.9	6.9	84	3.1	0	0	---	0.00	30.215 
05:00	6.9	6.9	6.9	84	3.1	0	0	---	0.00	30.219 
05:05	6.9	6.9	6.9	84	3.1	0	0	---	0.00	30.222 
05:10	6.7	6.7	6.7	84	2.9	0	0	---	0.00	30.222 
05:15	6.7	6.7	6.7	84	2.9	0	0	---	0.00	30.222 
05:20	6.5	6.5	6.5	84	2.7	0	0	---	0.00	30.220 
05:25	6.3	6.3	6.3	84	2.5	0	0	---	0.00	30.222 
05:30	6.1	6.1	6.1	84	2.3	0	0	---	0.00	30.223 
05:35	6.0	6.0	6.0	84	2.2	0	0	---	0.00	30.223 
05:40	5.8	5.8	5.8	84	2.0	0	0	---	0.00	30.225 
05:45	5.6	5.6	5.6	84	1.8	0	0	---	0.00	30.224 
05:50	5.6	5.6	5.6	84	1.8	0	0	---	0.00	30.225 
05:55	5.6	5.6	5.6	84	1.8	0	0	---	0.00	30.225 
06:00	5.8	5.8	5.8	84	2.0	0	0	---	0.00	30.229 
06:05	5.8	5.8	5.8	84	2.0	0	0	---	0.00	30.235 
06:10	5.6	5.6	5.6	84	1.8	0	0	---	0.00	30.239 
06:15	5.4	5.4	5.4	84	1.6	0	0	---	0.00	30.239 
06:20	5.2	5.2	5.2	84	1.4	0	0	---	0.00	30.241 
06:25	5.2	5.2	5.2	84	1.4	0	0	---	0.00	30.243 
06:30	5.4	5.4	5.4	84	1.6	0	0	---	0.00	30.246 
06:35	5.4	5.4	5.4	84	1.6	0	0	---	0.00	30.247 
06:40	5.4	5.4	5.4	84	1.6	0	0	---	0.00	30.245 
06:45	5.0	5.0	5.0	84	1.2	0	0	---	0.00	30.249 
06:50	5.0	5.0	5.0	84	1.2	0	0	---	0.00	30.253 
06:55	5.0	5.0	5.0	84	1.2	0	0	---	0.00	30.257 
07:00	5.0	5.0	5.0	84	1.2	0	0	---	0.00	30.257 
07:05	4.8	4.8	4.8	84	1.0	0	0	---	0.00	30.259 
07:10	4.8	4.8	4.8	84	1.0	0	0	---	0.00	30.257 
07:15	5.2	5.2	5.2	84	1.4	0	0	---	0.00	30.261 
07:20	5.2	5.2	5.2	84	1.4	0	0	---	0.00	30.262 
07:25	5.2	5.2	5.2	84	1.4	0	0	---	0.00	30.264 
07:30	5.2	5.2	5.2	84	1.4	0	0	---	0.00	30.270 
07:35	5.2	5.2	5.2	84	1.4	0	0	---	0.00	30.269 
07:40	5.2	5.2	5.2	84	1.4	0	0	---	0.00	30.273 
07:45	5.6	5.6	5.6	85	2.1	0	0	---	0.00	30.274 
07:50	6.7	6.7	6.7	86	3.4	0	1	270	0.00	30.276 
07:55	7.7	7.7	7.7	87	4.7	0	1	270	0.00	30.276 
08:00	9.0	9.0	9.0	88	6.2	0	1	270	0.00	30.276 
08:05	10.0	10.0	10.0	88	7.2	0	2	270	0.00	30.276 
08:10	11.1	11.1	11.1	88	8.3	0	1	270	0.00	30.276 
08:15	11.9	11.9	11.9	88	9.0	0	1	270	0.00	30.275 
08:20	12.6	12.6	12.6	88	9.7	0	1	270	0.00	30.275 
08:25	12.9	12.9	12.9	88	10.0	0	1	270	0.00	30.272 
08:30	13.5	13.5	13.5	88	10.6	0	1	270	0.00	30.272 
08:35	13.6	13.6	13.6	88	10.7	0	1	270	0.00	30.268 
08:40	13.8	13.8	13.8	87	10.7	0	1	270	0.00	30.270 
08:45	13.8	13.8	13.8	87	10.7	0	1	270	0.00	30.268 
08:50	13.8	13.8	13.8	86	10.4	0	2	270	0.00	30.271 
08:55	13.8	13.8	13.8	86	10.4	0	1	270	0.00	30.269 
09:00	13.8	13.8	13.8	86	10.4	0	1	270	0.00	30.273 
09:05	14.0	14.0	14.0	86	10.6	0	1	270	0.00	30.275 
09:10	14.1	14.1	14.1	86	10.7	0	0	---	0.00	30.276 
09:15	14.3	14.3	14.3	86	10.9	0	0	---	0.00	30.277 
09:20	14.6	14.6	14.6	86	11.2	0	1	270	0.00	30.277 
09:25	15.2	15.2	15.2	87	12.0	1	4	248	0.00	30.282 
09:30	15.7	15.7	15.7	87	12.5	0	3	248	0.00	30.278 
09:35	16.1	16.1	16.1	88	13.2	1	4	248	0.00	30.283 
09:40	16.4	16.4	16.4	88	13.5	1	5	248	0.00	30.285 
09:45	16.5	16.5	16.5	88	13.6	1	2	248	0.00	30.286 
09:50	16.7	16.7	16.7	87	13.5	1	4	248	0.00	30.289 
09:55	16.9	16.9	16.9	87	13.7	0	3	248	0.00	30.292 
10:00	17.2	17.2	17.2	88	14.3	1	3	248	0.00	30.292 
10:05	17.5	17.5	17.5	87	14.3	0	1	248	0.00	30.289 
10:10	17.7	17.7	17.7	87	14.5	0	3	248	0.00	30.288 
10:15	18.0	18.0	18.0	87	14.8	1	2	248	0.00	30.288 
10:20	18.4	18.4	18.4	86	14.9	1	5	248	0.00	30.292 
10:25	18.6	18.6	18.6	85	14.9	1	5	248	0.00	30.296 
10:30	18.9	18.9	18.9	84	14.9	1	4	248	0.00	30.295 
10:35	19.1	19.1	19.1	83	14.8	2	5	248	0.00	30.293 
10:40	19.4	19.4	19.4	83	15.1	0	3	248	0.00	30.289 
10:45	19.7	19.7	19.7	83	15.4	1	3	248	0.00	30.285 
10:50	20.0	20.0	20.0	82	15.4	1	4	248	0.00	30.284 
10:55	20.3	20.3	20.3	81	15.4	1	3	248	0.00	30.283 
11:00	20.6	20.6	20.6	81	15.7	0	2	248	0.00	30.283 
11:05	20.8	20.8	20.8	80	15.6	0	2	248	0.00	30.281 
11:10	21.0	21.0	21.0	79	15.5	0	2	248	0.00	30.282 
11:15	21.1	21.1	21.1	79	15.6	0	2	248	0.00	30.282 
11:20	21.4	21.4	21.4	79	15.9	0	3	202	0.00	30.283 
11:25	21.9	21.9	21.9	78	16.1	0	2	292	0.00	30.280 
11:30	22.4	22.4	22.4	77	16.3	0	2	248	0.00	30.279 
11:35	22.9	22.9	22.9	76	16.5	0	1	248	0.00	30.277 
11:40	23.2	23.2	23.2	75	16.5	0	2	180	0.00	30.276 
11:45	23.2	23.2	23.2	75	16.5	0	2	90	0.00	30.275 
11:50	23.2	23.2	23.2	74	16.2	1	4	112	0.00	30.269 
11:55	23.5	23.5	23.5	73	16.1	0	2	315	0.00	30.270 
12:00	23.8	23.8	23.8	73	16.4	1	3	292	0.00	30.266 
12:05	24.1	24.1	24.1	72	16.4	1	4	270	0.00	30.262 
12:10	24.4	24.4	24.4	72	16.7	1	3	270	0.00	30.262 
12:15	24.5	24.5	24.5	71	16.5	0	3	292	0.00	30.262 
12:20	24.8	24.8	24.8	71	16.8	0	2	292	0.00	30.262 
12:25	25.0	25.0	25.0	70	16.6	1	3	270	0.00	30.261 
12:30	25.1	25.1	25.1	71	17.0	0	2	270	0.00	30.261 
12:35	25.3	25.3	25.3	71	17.2	1	3	248	0.00	30.260 
12:40	25.4	25.4	25.4	71	17.3	1	4	90	0.00	30.250 
12:45	25.4	25.4	25.4	70	17.0	0	3	112	0.00	30.249 
12:50	25.4	25.4	25.4	70	17.0	1	4	248	0.00	30.246 
12:55	25.6	25.6	25.6	70	17.2	1	4	248	0.00	30.244 
13:00	25.8	25.8	25.8	69	17.1	0	4	270	0.00	30.238 
13:05	25.8	25.8	25.8	69	17.1	1	2	90	0.00	30.234 
13:10	25.6	25.6	25.6	69	16.9	1	3	90	0.00	30.227 
13:15	25.6	25.6	25.6	69	16.9	1	3	112	0.00	30.227 
13:20	25.7	25.7	25.7	69	17.0	1	4	90	0.00	30.226 
13:25	25.8	25.8	25.8	68	16.7	1	5	248	0.00	30.229 
13:30	25.8	25.8	25.8	68	16.7	1	6	270	0.00	30.234 
13:35	26.0	26.0	26.0	68	16.9	0	2	270	0.00	30.229 
13:40	26.1	26.1	26.1	68	17.0	1	2	270	0.00	30.225 
13:45	26.1	26.1	26.1	67	16.7	1	3	270	0.00	30.222 
13:50	26.4	26.4	26.4	66	16.6	1	3	248	0.00	30.224 
13:55	26.6	26.6	26.6	64	16.1	2	5	248	0.00	30.224 
14:00	26.6	26.6	26.6	64	16.1	1	4	248	0.00	30.225 
14:05	26.7	26.7	26.7	63	15.8	2	5	248	0.00	30.230 
14:10	27.0	27.0	27.0	64	16.5	1	4	248	0.00	30.231 
14:15	27.3	27.3	27.3	64	16.8	1	3	248	0.00	30.229 
14:20	27.5	27.5	27.5	63	16.6	1	4	248	0.00	30.227 
14:25	27.6	27.6	27.6	61	15.9	3	7	248	0.00	30.228 
14:30	27.8	27.8	27.8	60	15.7	1	5	225	0.00	30.229 
14:35	27.9	27.9	27.9	61	16.2	1	5	248	0.00	30.227 
14:40	27.9	27.9	27.9	60	15.8	2	4	248	0.00	30.225 
14:45	27.9	27.9	27.9	60	15.8	1	6	248	0.00	30.220 
14:50	28.1	28.1	28.1	59	15.6	2	9	248	0.00	30.217 
14:55	27.8	27.8	27.8	60	15.7	1	4	248	0.00	30.216 
15:00	27.6	27.6	27.6	60	15.6	1	3	248	0.00	30.211 
15:05	27.3	27.3	27.3	61	15.7	1	4	225	0.00	30.213 
15:10	27.3	27.3	27.3	60	15.3	0	2	225	0.00	30.213 
15:15	27.3	27.3	27.3	60	15.3	1	4	248	0.00	30.214 
15:20	27.3	27.3	27.3	62	16.0	0	2	225	0.00	30.215 
15:25	27.5	27.5	27.5	61	15.8	1	4	248	0.00	30.215 
15:30	27.2	27.2	27.2	61	15.6	1	3	248	0.00	30.218 
15:35	26.9	26.9	26.9	61	15.3	1	3	248	0.00	30.214 
15:40	26.4	26.4	26.4	62	15.2	0	2	248	0.00	30.214 
15:45	26.1	26.1	26.1	62	14.9	0	1	248	0.00	30.217 
15:50	26.0	26.0	26.0	63	15.2	0	2	248	0.00	30.221 
15:55	26.0	26.0	26.0	63	15.2	0	2	248	0.00	30.219 
16:00	25.8	25.8	25.8	64	15.3	0	1	248	0.00	30.217 
16:05	25.7	25.7	25.7	64	15.2	0	2	248	0.00	30.214 
16:10	25.6	25.6	25.6	65	15.5	0	1	248	0.00	30.211 
16:15	25.4	25.4	25.4	65	15.3	0	1	248	0.00	30.205 
16:20	25.1	25.1	25.1	66	15.4	0	1	248	0.00	30.204 
16:25	25.0	25.0	25.0	66	15.3	0	2	248	0.00	30.203 
16:30	24.8	24.8	24.8	66	15.1	0	3	68	0.00	30.206 
16:35	24.7	24.7	24.7	67	15.3	0	2	68	0.00	30.204 
16:40	24.7	24.7	24.7	67	15.3	0	2	90	0.00	30.205 
16:45	24.5	24.5	24.5	68	15.5	0	1	90	0.00	30.204 
16:50	24.4	24.4	24.4	68	15.4	0	2	90	0.00	30.204 
16:55	24.2	24.2	24.2	68	15.2	0	1	90	0.00	30.205 
17:00	24.1	24.1	24.1	68	15.1	0	3	90	0.00	30.205 
17:05	24.1	24.1	24.1	68	15.1	0	1	112	0.00	30.206 
17:10	23.9	23.9	23.9	68	14.9	0	3	112	0.00	30.204 
17:15	23.8	23.8	23.8	68	14.8	0	2	112	0.00	30.203 
17:20	23.6	23.6	23.6	68	14.6	0	3	112	0.00	30.203 
17:25	23.5	23.5	23.5	68	14.5	0	3	112	0.00	30.203 
17:30	23.3	23.3	23.3	68	14.3	0	2	112	0.00	30.205 
17:35	23.2	23.2	23.2	68	14.2	0	2	112	0.00	30.204 
17:40	23.0	23.0	23.0	68	14.0	0	1	112	0.00	30.206 
17:45	22.9	22.9	22.9	68	13.9	0	1	112	0.00	30.204 
17:50	22.9	22.9	22.9	68	13.9	0	1	112	0.00	30.199 
17:55	22.7	22.7	22.7	68	13.8	0	1	112	0.00	30.201 
18:00	22.5	22.5	22.5	68	13.6	0	1	112	0.00	30.199 
18:05	22.4	22.4	22.4	68	13.5	0	1	112	0.00	30.200 
18:10	22.2	22.2	22.2	68	13.3	0	1	112	0.00	30.198 
18:15	22.1	22.1	22.1	67	12.8	0	1	112	0.00	30.199 
18:20	21.9	21.9	21.9	67	12.7	0	1	112	0.00	30.201 
18:25	21.8	21.8	21.8	67	12.6	0	0	---	0.00	30.203 
18:30	21.6	21.6	21.6	67	12.4	0	0	---	0.00	30.205 
18:35	21.4	21.4	21.4	68	12.5	0	0	---	0.00	30.207 
18:40	21.1	21.1	21.1	68	12.2	0	1	112	0.00	30.207 
18:45	21.0	21.0	21.0	69	12.5	0	0	---	0.00	30.209 
18:50	20.6	20.6	20.6	69	12.1	0	0	---	0.00	30.212 
18:55	20.5	20.5	20.5	70	12.3	0	0	---	0.00	30.216 
19:00	20.3	20.3	20.3	70	12.1	0	1	112	0.00	30.215 
19:05	20.5	20.5	20.5	69	12.0	0	2	112	0.00	30.211 
19:10	20.6	20.6	20.6	69	12.1	0	1	112	0.00	30.205 
19:15	20.8	20.8	20.8	68	11.9	0	1	112	0.00	30.208 
19:20	21.0	21.0	21.0	68	12.1	0	1	112	0.00	30.205 
19:25	21.0	21.0	21.0	68	12.1	0	1	112	0.00	30.204 
19:30	21.1	21.1	21.1	68	12.2	0	1	112	0.00	30.203 
19:35	21.3	21.3	21.3	68	12.4	0	2	112	0.00	30.202 
19:40	21.4	21.4	21.4	68	12.5	1	2	135	0.00	30.201 
19:45	21.6	21.6	21.6	69	13.0	0	2	135	0.00	30.198 
19:50	21.8	21.8	21.8	69	13.2	1	3	135	0.00	30.193 
19:55	21.8	21.8	21.8	69	13.2	1	2	112	0.00	30.190 
20:00	21.9	21.9	21.9	69	13.3	1	3	135	0.00	30.189 
20:05	21.9	21.9	21.9	69	13.3	1	5	112	0.00	30.184 
20:10	21.9	21.9	21.9	70	13.6	1	2	112	0.00	30.183 
20:15	21.9	21.9	21.9	70	13.6	1	2	112	0.00	30.182 
20:20	21.9	21.9	21.9	70	13.6	1	3	112	0.00	30.183 
20:25	21.9	21.9	21.9	71	14.0	1	5	135	0.00	30.181 
20:30	21.9	21.9	21.9	71	14.0	1	3	112	0.00	30.181 
20:35	21.9	21.9	21.9	72	14.3	0	2	112	0.00	30.176 
20:40	21.9	21.9	21.9	72	14.3	1	3	135	0.00	30.168 
20:45	21.9	21.9	21.9	73	14.6	0	2	112	0.00	30.167 
20:50	21.9	21.9	21.9	73	14.6	1	3	112	0.00	30.169 
20:55	21.9	21.9	21.9	73	14.6	1	3	112	0.00	30.172 
21:00	22.1	22.1	22.1	73	14.8	1	3	112	0.00	30.169 
21:05	22.1	22.1	22.1	73	14.8	0	2	112	0.00	30.166 
21:10	22.2	22.2	22.2	73	14.9	0	2	112	0.00	30.164 
21:15	22.2	22.2	22.2	73	14.9	1	3	112	0.00	30.162 
21:20	22.2	22.2	22.2	73	14.9	0	3	135	0.00	30.159 
21:25	22.4	22.4	22.4	73	15.1	1	2	112	0.00	30.157 
21:30	22.4	22.4	22.4	73	15.1	1	3	90	0.00	30.151 
21:35	22.4	22.4	22.4	73	15.1	0	1	90	0.00	30.148 
21:40	22.4	22.4	22.4	73	15.1	1	2	90	0.00	30.148 
21:45	22.4	22.4	22.4	73	15.1	1	2	112	0.00	30.149 
21:50	22.4	22.4	22.4	73	15.1	0	2	90	0.00	30.154 
21:55	22.5	22.5	22.5	73	15.2	1	3	112	0.00	30.147 
22:00	22.7	22.7	22.7	73	15.4	0	2	135	0.00	30.149 
22:05	22.7	22.7	22.7	73	15.4	1	2	135	0.00	30.143 
22:10	22.9	22.9	22.9	73	15.6	1	4	112	0.00	30.143 
22:15	22.9	22.9	22.9	73	15.6	0	2	112	0.00	30.145 
22:20	22.9	22.9	22.9	73	15.6	1	2	112	0.00	30.144 
22:25	23.0	23.0	23.0	73	15.7	1	4	135	0.00	30.141 
22:30	23.0	23.0	23.0	73	15.7	1	3	112	0.00	30.137 
22:35	23.2	23.2	23.2	73	15.9	1	3	112	0.00	30.137 
22:40	23.3	23.3	23.3	73	15.9	0	3	112	0.00	30.135 
22:45	23.5	23.5	23.5	73	16.1	1	2	112	0.00	30.127 
22:50	23.5	23.5	23.5	73	16.1	1	3	112	0.00	30.128 
22:55	23.6	23.6	23.6	73	16.2	0	2	112	0.00	30.125 
23:00	23.6	23.6	23.6	73	16.2	0	1	135	0.00	30.127 
23:05	23.8	23.8	23.8	73	16.4	0	4	112	0.00	30.120 
23:10	23.8	23.8	23.8	73	16.4	0	3	112	0.00	30.112 
23:15	23.9	23.9	23.9	73	16.5	1	2	112	0.00	30.114 
23:20	23.9	23.9	23.9	74	16.8	0	2	112	0.00	30.115 
23:25	23.9	23.9	23.9	74	16.8	0	2	112	0.00	30.106 
23:30	23.9	23.9	23.9	75	17.2	0	2	112	0.00	30.105 
23:35	23.9	23.9	23.9	75	17.2	0	3	135	0.00	30.097 
23:40	23.9	23.9	23.9	75	17.2	1	3	90	0.00	30.095 
23:45	24.1	24.1	24.1	75	17.3	0	2	135	0.00	30.098 
23:50	24.1	24.1	24.1	75	17.3	0	2	90	0.00	30.097 
23:55	24.1	24.1	24.1	75	17.3	0	2	112	0.00	30.098 

CoCoRaHS
IN-AL-39
A2 Web Hosting
Creative Commons License
GoDaddy
Look for:

loaded 2017-12-13 15:54:20 • last modified 2010-11-18 10:43:29
Privacy PolicyDisclaimer
• wx.awcolley.com is powered by PmWiki v.2002016 •
• all content (unless otherwise noted) © 2017 A W Colley